ADDS METAR Data INFO
IDs: Format: Raw Decoded Include TAF

Data at: 1938 UTC 18 Feb 2018

K21D 181915Z AUTO 17017G23KT 10SM CLR 03/M01 A2966 RMK AO2
K21D 181855Z AUTO 18017G29KT 10SM CLR 04/M01 A2965 RMK AO2
K21D 181835Z AUTO 17019G26KT 10SM CLR 03/M01 A2965 RMK AO2
K21D 181815Z AUTO 16022G29KT 10SM CLR 02/M02 A2966 RMK AO2
K21D 181755Z AUTO 15015G24KT 10SM CLR 01/M03 A2968 RMK AO2
K21D 181735Z AUTO 16017G22KT 10SM CLR 00/M03 A2972 RMK AO2
K21D 181715Z AUTO 15017G26KT 10SM SCT085 00/M04 A2974 RMK AO2
K21D 181655Z AUTO 15017G24KT 10SM SCT085 M01/M05 A2975 RMK AO2
K21D 181636Z AUTO 16018G26KT 10SM CLR M01/M05 A2978 RMK AO2
K21D 181615Z AUTO 14017G24KT 10SM CLR M01/M06 A2980 RMK AO2
K21D 181555Z AUTO 14014G23KT 10SM CLR M02/M07 A2982 RMK AO2
K21D 181535Z AUTO 13011G16KT 10SM CLR M02/M09 A2984 RMK AO2
K21D 181515Z AUTO 13010G15KT 10SM CLR M03/M10 A2987 RMK AO2
K21D 181455Z AUTO 12010G15KT 10SM CLR M03/M11 A2988 RMK AO2
K21D 181435Z AUTO 13010KT 10SM CLR M03/M12 A2992 RMK AO2
K21D 181415Z AUTO 12007G15KT 10SM CLR M04/M12 A2993 RMK AO2
K21D 181355Z AUTO 12008KT 10SM CLR M05/M13 A2995 RMK AO2
K21D 181335Z AUTO 13008KT 10SM CLR M05/M13 A2996 RMK AO2
K21D 181315Z AUTO 14005KT 10SM CLR M05/M13 A2997 RMK AO2
K21D 181255Z AUTO 11007KT 10SM CLR M06/M13 A2996 RMK AO2
K21D 181235Z AUTO 12008KT 10SM CLR M06/M13 A2998 RMK AO2
K21D 181215Z AUTO 12009KT 10SM CLR M06/M13 A2999 RMK AO2
K21D 181155Z AUTO 12006KT 10SM CLR M06/M13 A3001 RMK AO2
K21D 181135Z AUTO 11006KT 10SM CLR M06/M13 A3001 RMK AO2
K21D 181115Z AUTO 10006KT 10SM SCT065 M07/M13 A3004 RMK AO2
K21D 181055Z AUTO 00000KT 10SM CLR M07/M12 A3007 RMK AO2
K21D 181035Z AUTO 16003KT 10SM SCT070 M07/M12 A3008 RMK AO2
K21D 181015Z AUTO 00000KT 10SM SCT070 M08/M13 A3007 RMK AO2
K21D 180955Z AUTO 00000KT 10SM CLR M08/M13 A3006 RMK AO2
K21D 180935Z AUTO 06005KT 10SM CLR M10/M13 A3004 RMK AO2
K21D 180915Z AUTO 00000KT 10SM CLR M10/M13 A3011 RMK AO2
K21D 180855Z AUTO 00000KT 10SM CLR M11/M14 A3011 RMK AO2
K21D 180835Z AUTO 00000KT 10SM CLR M10/M14 A3012 RMK AO2
K21D 180815Z AUTO 00000KT 10SM CLR M10/M14 A3012 RMK AO2
K21D 180755Z AUTO 00000KT 10SM CLR M12/M15 A3011 RMK AO2
K21D 180735Z AUTO 00000KT 10SM CLR M11/M15 A3009 RMK AO2
K21D 180715Z AUTO 00000KT 10SM CLR M12/M15 A3005 RMK AO2
K21D 180655Z AUTO 05003KT 10SM CLR M11/M15 A3006 RMK AO2
K21D 180636Z AUTO 00000KT 10SM CLR M10/M13 A3007 RMK AO2
K21D 180615Z AUTO 00000KT 10SM CLR M11/M15 A3008 RMK AO2
K21D 180555Z AUTO 00000KT 10SM CLR M11/M15 A3008 RMK AO2
K21D 180535Z AUTO 00000KT 10SM CLR M09/M14 A3008 RMK AO2
K21D 180515Z AUTO 00000KT 10SM CLR M08/M13 A3008 RMK AO2
K21D 180455Z AUTO 26003KT 10SM CLR M07/M13 A3007 RMK AO2
K21D 180435Z AUTO 00000KT 10SM CLR M07/M13 A3006 RMK AO2
K21D 180415Z AUTO 00000KT 10SM CLR M06/M13 A3006 RMK AO2
K21D 180355Z AUTO 30003KT 10SM CLR M05/M13 A3006 RMK AO2
K21D 180335Z AUTO 29004KT 10SM CLR M05/M13 A3006 RMK AO2
K21D 180315Z AUTO 28006KT 10SM CLR M05/M12 A3006 RMK AO2
K21D 180255Z AUTO 30006KT 10SM CLR M03/M12 A3005 RMK AO2
K21D 180235Z AUTO 28009KT 10SM CLR M03/M12 A3004 RMK AO2
K21D 180215Z AUTO 28008KT 10SM CLR M03/M11 A3003 RMK AO2
K21D 180155Z AUTO 29011G16KT 10SM CLR M02/M11 A3002 RMK AO2
K21D 180135Z AUTO 30008KT 10SM CLR M02/M10 A3001 RMK AO2
K21D 180115Z AUTO 30009KT 10SM CLR M01/M10 A3000 RMK AO2
K21D 180055Z AUTO 30008KT 10SM CLR M01/M11 A2999 RMK AO2
K21D 180035Z AUTO 29009G15KT 10SM CLR M01/M10 A2998 RMK AO2
K21D 180015Z AUTO 29012G15KT 10SM CLR 00/M10 A2997 RMK AO2
K21D 172355Z AUTO 29012G18KT 10SM CLR 00/M10 A2996 RMK AO2
K21D 172335Z AUTO 29009G18KT 10SM CLR 00/M09 A2994 RMK AO2
K21D 172315Z AUTO 29009G17KT 10SM CLR 00/M08 A2993 RMK AO2
K21D 172255Z AUTO 28013G18KT 10SM SCT050 01/M08 A2992 RMK AO2
K21D 172235Z AUTO 27015G26KT 10SM SCT048 01/M08 A2992 RMK AO2
K21D 172215Z AUTO 28012KT 10SM BKN048 01/M07 A2991 RMK AO2
K21D 172155Z AUTO 26016G19KT 10SM BKN048 02/M07 A2990 RMK AO2
K21D 172135Z AUTO 27012KT 10SM SCT043 01/M06 A2989 RMK AO2
K21D 172115Z AUTO 28008KT 10SM SCT043 01/M06 A2989 RMK AO2
K21D 172055Z AUTO 28008KT 10SM SCT041 01/M06 A2989 RMK AO2
K21D 172035Z AUTO 28008KT 10SM CLR 01/M05 A2988 RMK AO2
K21D 172015Z AUTO 26008KT 10SM SCT028 SCT036 01/M05 A2988 RMK AO2
K21D 171955Z AUTO 27009KT 10SM BKN026 00/M05 A2988 RMK AO2
K21D 171935Z AUTO 26009KT 10SM BKN024 00/M04 A2988 RMK AO2
K21D 171915Z AUTO 26005KT 10SM CLR 00/M04 A2987 RMK AO2
K21D 171855Z AUTO 25007KT 10SM SCT018 SCT030 00/M04 A2987 RMK AO2
K21D 171835Z AUTO 24007KT 10SM BKN018 OVC030 00/M04 A2988 RMK AO2
K21D 171815Z AUTO 28005KT 10SM BKN016 OVC032 M01/M04 A2989 RMK AO2
K21D 171755Z AUTO 27007KT 10SM OVC014 M01/M04 A2989 RMK AO2
K21D 171735Z AUTO 26008KT 10SM OVC014 M01/M04 A2990 RMK AO2
K21D 171715Z AUTO 25006KT 10SM OVC012 M01/M04 A2990 RMK AO2
K21D 171655Z AUTO 26009KT 10SM OVC012 M02/M04 A2990 RMK AO2
K21D 171635Z AUTO 24007KT 10SM OVC010 M02/M04 A2989 RMK AO2
K21D 171615Z AUTO 22006KT 10SM BKN010 M02/M05 A2989 RMK AO2
K21D 171555Z AUTO 21005KT 10SM BKN010 M03/M05 A2988 RMK AO2
K21D 171535Z AUTO 19006KT 10SM SCT010 M03/M05 A2988 RMK AO2
K21D 171515Z AUTO 21006KT 3SM -SN SCT018 BKN024 M03/M05 A2989 RMK AO2
K21D 171455Z AUTO 22004KT 3SM -SN SCT018 BKN024 BKN030 M03/M05 A2989 RMK AO2
K21D 171435Z AUTO 21005KT 2SM -SN BKN022 M04/M06 A2989 RMK AO2
K21D 171415Z AUTO 20007KT 2 1/2SM -SN BKN022 BKN027 OVC035 M03/M06 A2989 RMK AO2
K21D 171355Z AUTO 20007KT 10SM BKN035 OVC041 M03/M08 A2989 RMK AO2
K21D 171335Z AUTO 20004KT 10SM SCT035 BKN041 OVC055 M04/M08 A2989 RMK AO2
K21D 171315Z AUTO 19004KT 10SM BKN055 BKN075 M05/M08 A2987 RMK AO2
K21D 171255Z AUTO 18005KT 10SM CLR M05/M08 A2987 RMK AO2
K21D 171235Z AUTO 19004KT 10SM CLR M05/M09 A2987 RMK AO2
K21D 171215Z AUTO 18005KT 10SM CLR M05/M09 A2987 RMK AO2
K21D 171156Z AUTO 19006KT 10SM CLR M05/M09 A2987 RMK AO2
K21D 171135Z AUTO 19006KT 10SM SCT070 SCT080 M06/M09 A2988 RMK AO2
K21D 171115Z AUTO 18006KT 10SM SCT070 SCT080 M06/M10 A2988 RMK AO2
K21D 171055Z AUTO 19006KT 10SM CLR M06/M10 A2988 RMK AO2
K21D 171035Z AUTO 18007KT 10SM CLR M06/M10 A2989 RMK AO2
K21D 171015Z AUTO 19006KT 10SM CLR M06/M10 A2990 RMK AO2
K21D 170955Z AUTO 19009KT 10SM CLR M06/M11 A2990 RMK AO2
K21D 170935Z AUTO 19010KT 10SM CLR M07/M11 A2991 RMK AO2
K21D 170915Z AUTO 19009KT 10SM CLR M07/M11 A2991 RMK AO2
K21D 170855Z AUTO 19008KT 10SM CLR M07/M11 A2993 RMK AO2
K21D 170835Z AUTO 19007KT 10SM CLR M07/M11 A2994 RMK AO2
K21D 170815Z AUTO 19008KT 10SM SCT065 M08/M12 A2995 RMK AO2
K21D 170755Z AUTO 19007KT 10SM BKN065 M08/M12 A2995 RMK AO2